Startpagina
METAR-TAF:

METAR-TAF

Vliegvelden :

Internationale luchthaven van Tuzla

Tuzla, Bosnië en Herzegovina

breedte: 44-33N, lengte: 018-42E, hoogte: 306 m

Actueel weer

Dit bericht is 34 minuten geleden gemaakt, om 11:30 UTC
Wind 2 kt uit variabele richting
Temperatuur 4°C
Vochtigheid 87%
Druk 1014 hPa
Zicht: 8000 m
Weinig wolken op 2000 ft
Gebroken wolken op 2500 ft

METAR: LQTZ 191130Z VRB02KT 8000 FEW020 BKN025 04/02 Q1014

Tijdstip: 13:04 (12:04 UTC)

Verwachting

Dit bericht is 1 uur en het 4 minuten geleden gemaakt, om 11:00 UTC
Verwachting geldig van 19 om 12 UTC tot 20 om 12 UTC
Wind 2 kt uit variabele richting
Zicht 10 km of meer
Gebroken wolken op 3000 ft
Kans 40% :
Tijdelijke
van 20 om 00 UTC tot 20 om 09 UTC
Zicht: 4000 m
Gebroken wolken op 1500 ft
Geheel bewolkt op 2000 ft
regen, nevel

TAF: LQTZ 191100Z 1912/2012 VRB02KT 9999 BKN030 TX05/1913Z TN00/1923Z PROB40 TEMPO 2000/2009 4000 RA BR BKN015 OVC020

Waarnemingen en weersverwachtingen van meer dan 4000 vliegvelden (METAR en TAF).

De beschikbare stations zijn de gele en rode punten op de kaart.

Ga met uw muis naar het station om de naam te zien.

Klik dan om waarnemingen en weersverwachtingen te zien.

kaart wijzigen: klik op de groene knoppen met een zwart kruis om in te zoomen, op de groene knop met een streepje om uit te zoomen of op de groene pijlen voor aangrenzende kaarten.


METAR-TAF: